createdAt,value
2017-12-25T00:01:07.965Z,9.43
2017-12-25T00:03:35.576Z,13.27
2017-12-25T00:06:03.161Z,11.83
2017-12-25T00:08:31.528Z,10.80
2017-12-25T00:10:59.139Z,10.13
2017-12-25T00:13:26.756Z,16.13
2017-12-25T00:15:55.393Z,12.50
2017-12-25T00:18:22.960Z,11.60
2017-12-25T00:20:50.602Z,10.87
2017-12-25T00:23:18.225Z,14.97
2017-12-25T00:25:45.828Z,10.73
2017-12-25T00:28:13.395Z,11.07
2017-12-25T00:30:41.065Z,10.83
2017-12-25T00:33:08.646Z,12.87
2017-12-25T00:35:36.213Z,13.00
2017-12-25T00:38:03.828Z,11.83
2017-12-25T00:40:31.451Z,13.10
2017-12-25T00:42:59.133Z,12.07
2017-12-25T00:45:26.709Z,11.77
2017-12-25T00:47:54.316Z,13.07
2017-12-25T00:50:21.873Z,11.47
2017-12-25T00:52:49.473Z,13.07
2017-12-25T00:55:17.869Z,11.60
2017-12-25T00:57:45.460Z,13.83
2017-12-25T01:00:13.116Z,11.10
2017-12-25T01:02:40.691Z,15.43
2017-12-25T01:05:08.315Z,12.33
2017-12-25T01:07:35.885Z,15.03
2017-12-25T01:10:03.568Z,12.97
2017-12-25T01:12:31.251Z,13.60
2017-12-25T01:14:58.817Z,13.70
2017-12-25T01:17:26.526Z,12.50
2017-12-25T01:19:54.093Z,13.67
2017-12-25T01:22:21.782Z,16.73
2017-12-25T01:24:49.356Z,13.33
2017-12-25T01:27:16.933Z,12.70
2017-12-25T01:29:44.730Z,12.60
2017-12-25T01:32:12.362Z,13.50
2017-12-25T01:34:39.934Z,12.67
2017-12-25T01:37:08.299Z,13.67
2017-12-25T01:39:35.913Z,15.60
2017-12-25T01:42:03.480Z,14.80
2017-12-25T01:44:31.172Z,14.73
2017-12-25T01:47:05.637Z,12.07
2017-12-25T01:49:33.267Z,12.73
2017-12-25T01:52:01.703Z,11.50
2017-12-25T01:54:29.285Z,11.63
2017-12-25T02:00:13.355Z,12.67
2017-12-25T02:02:41.882Z,14.23
2017-12-25T02:05:40.875Z,11.90
2017-12-25T02:11:05.040Z,13.13
2017-12-25T02:13:32.642Z,11.70
2017-12-25T02:16:00.323Z,11.87
2017-12-25T02:18:27.885Z,11.83
2017-12-25T02:20:55.566Z,12.07
2017-12-25T02:23:23.178Z,12.00
2017-12-25T02:25:50.804Z,10.33
2017-12-25T02:28:18.372Z,9.27
2017-12-25T02:30:45.941Z,8.90
2017-12-25T02:33:13.557Z,8.73
2017-12-25T02:35:41.122Z,10.47
2017-12-25T02:38:08.686Z,8.83
2017-12-25T02:40:36.287Z,9.50
2017-12-25T02:43:03.886Z,9.47
2017-12-25T02:45:31.565Z,8.13
2017-12-25T02:47:59.141Z,8.47
2017-12-25T02:50:26.885Z,9.17
2017-12-25T02:52:54.542Z,6.80
2017-12-25T02:55:22.125Z,8.60
2017-12-25T02:57:49.725Z,6.67
2017-12-25T03:00:17.283Z,6.57
2017-12-25T03:02:44.845Z,6.30
2017-12-25T03:05:12.551Z,8.47
2017-12-25T03:07:40.124Z,7.40
2017-12-25T03:10:07.769Z,6.97
2017-12-25T03:12:36.148Z,8.07
2017-12-25T03:15:04.590Z,6.37
2017-12-25T03:17:32.249Z,7.27
2017-12-25T03:19:59.822Z,7.20
2017-12-25T03:22:27.477Z,7.03
2017-12-25T03:24:55.150Z,7.30
2017-12-25T03:27:22.809Z,7.90
2017-12-25T03:29:50.367Z,6.93
2017-12-25T03:32:18.069Z,5.93
2017-12-25T03:34:45.690Z,7.63
2017-12-25T03:37:13.369Z,8.27
2017-12-25T03:39:41.018Z,5.77
2017-12-25T03:42:08.630Z,7.00
2017-12-25T03:44:36.233Z,6.40
2017-12-25T03:47:03.877Z,10.57
2017-12-25T03:49:31.571Z,7.23
2017-12-25T03:51:59.131Z,6.97
2017-12-25T03:54:26.808Z,8.50
2017-12-25T03:56:54.402Z,6.43
2017-12-25T03:59:21.969Z,6.23
2017-12-25T04:01:49.595Z,6.80
2017-12-25T04:04:17.921Z,6.17
2017-12-25T04:06:45.487Z,8.00
2017-12-25T04:09:13.116Z,6.33
2017-12-25T04:11:40.674Z,8.23
2017-12-25T04:14:08.434Z,7.63
2017-12-25T04:16:36.023Z,6.83
2017-12-25T04:19:03.635Z,6.40
2017-12-25T04:21:32.009Z,6.67
2017-12-25T04:23:59.584Z,6.93
2017-12-25T04:26:27.205Z,10.70
2017-12-25T04:28:54.773Z,8.57
2017-12-25T04:31:22.361Z,9.17
2017-12-25T04:33:49.959Z,8.20
2017-12-25T04:36:17.565Z,9.03
2017-12-25T04:38:45.258Z,11.67
2017-12-25T04:41:12.813Z,11.03
2017-12-25T04:43:40.392Z,16.73
2017-12-25T04:46:08.005Z,14.53
2017-12-25T04:48:35.563Z,11.53
2017-12-25T04:51:03.200Z,17.60
2017-12-25T04:53:30.777Z,16.87
2017-12-25T04:55:58.442Z,15.60
2017-12-25T04:58:26.032Z,21.17
2017-12-25T05:00:54.389Z,15.37
2017-12-25T05:03:22.079Z,20.20
2017-12-25T05:05:49.698Z,18.33
2017-12-25T05:08:17.301Z,16.80
2017-12-25T05:10:45.055Z,21.77
2017-12-25T05:13:12.670Z,17.90
2017-12-25T05:15:40.318Z,16.37
2017-12-25T05:18:07.890Z,20.07
2017-12-25T05:20:35.500Z,17.67
2017-12-25T05:23:03.188Z,24.30
2017-12-25T05:25:30.755Z,19.13
2017-12-25T05:27:58.435Z,17.97
2017-12-25T05:30:26.012Z,18.97
2017-12-25T05:32:53.631Z,20.73
2017-12-25T05:35:21.287Z,21.07
2017-12-25T05:37:48.819Z,18.17
2017-12-25T05:40:16.585Z,16.80
2017-12-25T05:42:44.159Z,18.77
2017-12-25T05:45:11.784Z,19.67
2017-12-25T05:47:39.403Z,16.20
2017-12-25T05:50:06.977Z,14.60
2017-12-25T05:52:34.551Z,15.70
2017-12-25T05:55:02.171Z,14.97
2017-12-25T05:57:30.512Z,14.47
2017-12-25T05:59:58.113Z,19.67
2017-12-25T06:02:25.683Z,15.77
2017-12-25T06:04:53.350Z,15.67
2017-12-25T06:07:20.916Z,15.30
2017-12-25T06:09:48.538Z,14.93
2017-12-25T06:12:16.110Z,19.57
2017-12-25T06:14:44.619Z,18.40
2017-12-25T06:17:13.022Z,13.70
2017-12-25T06:19:40.665Z,13.87
2017-12-25T06:22:08.250Z,15.27
2017-12-25T06:24:35.866Z,14.87
2017-12-25T06:27:03.443Z,15.17
2017-12-25T06:29:31.006Z,13.77
2017-12-25T06:31:58.630Z,14.63
2017-12-25T06:34:26.196Z,13.00
2017-12-25T06:36:53.828Z,16.00
2017-12-25T06:39:21.475Z,16.60
2017-12-25T06:41:49.046Z,13.67
2017-12-25T06:44:16.663Z,12.70
2017-12-25T06:46:44.292Z,12.60
2017-12-25T06:49:11.866Z,11.70
2017-12-25T06:51:39.522Z,11.93
2017-12-25T06:54:07.133Z,13.27
2017-12-25T06:56:34.773Z,11.13
2017-12-25T06:59:03.124Z,13.77
2017-12-25T07:01:30.726Z,11.10
2017-12-25T07:03:58.332Z,11.57
2017-12-25T07:06:28.160Z,12.63
2017-12-25T07:08:55.725Z,15.87
2017-12-25T07:11:23.338Z,14.87
2017-12-25T07:13:50.898Z,19.03
2017-12-25T07:16:18.509Z,20.63
2017-12-25T07:18:46.094Z,23.53
2017-12-25T07:21:13.666Z,22.17
2017-12-25T07:23:41.386Z,23.67
2017-12-25T07:26:08.998Z,25.00
2017-12-25T07:28:36.584Z,30.07
2017-12-25T07:31:04.408Z,23.57
2017-12-25T07:33:32.782Z,25.90
2017-12-25T07:36:01.193Z,26.57
2017-12-25T07:38:28.937Z,24.33
2017-12-25T07:40:57.273Z,27.67
2017-12-25T07:43:24.835Z,25.00
2017-12-25T07:45:52.447Z,26.67
2017-12-25T07:48:20.046Z,23.87
2017-12-25T07:50:47.668Z,23.20
2017-12-25T07:53:15.282Z,24.27
2017-12-25T07:55:42.901Z,24.40
2017-12-25T07:58:10.501Z,22.43
2017-12-25T08:00:38.112Z,21.10
2017-12-25T08:03:05.699Z,22.03
2017-12-25T08:05:33.314Z,21.10
2017-12-25T08:08:00.902Z,20.30
2017-12-25T08:10:28.468Z,21.03
2017-12-25T08:12:56.074Z,22.00
2017-12-25T08:15:23.662Z,23.03
2017-12-25T08:17:51.268Z,21.50
2017-12-25T08:20:18.846Z,21.13
2017-12-25T08:22:46.454Z,22.57
2017-12-25T08:25:14.057Z,22.70
2017-12-25T08:27:41.617Z,20.67
2017-12-25T08:30:11.978Z,22.87
2017-12-25T08:32:40.353Z,23.57
2017-12-25T08:35:07.996Z,25.63
2017-12-25T08:37:35.557Z,22.07
2017-12-25T08:40:03.114Z,23.10
2017-12-25T08:42:30.735Z,22.70
2017-12-25T08:44:58.355Z,24.70
2017-12-25T08:47:25.922Z,22.77
2017-12-25T08:49:53.558Z,24.40
2017-12-25T08:52:21.163Z,22.83
2017-12-25T08:54:48.730Z,25.30
2017-12-25T08:57:17.102Z,25.50
2017-12-25T08:59:45.437Z,24.57
2017-12-25T09:02:13.045Z,26.53
2017-12-25T09:04:40.613Z,25.93
2017-12-25T09:07:08.313Z,26.50
2017-12-25T09:09:35.873Z,25.87
2017-12-25T09:12:03.437Z,22.87
2017-12-25T09:14:31.043Z,22.23
2017-12-25T09:16:58.626Z,25.13
2017-12-25T09:19:26.269Z,26.70
2017-12-25T09:21:53.835Z,24.93
2017-12-25T09:24:22.197Z,21.57
2017-12-25T09:26:50.591Z,23.33
2017-12-25T09:29:18.924Z,21.50
2017-12-25T09:31:46.562Z,20.60
2017-12-25T09:34:14.120Z,19.70
2017-12-25T09:36:41.763Z,20.43
2017-12-25T09:39:09.362Z,19.43
2017-12-25T09:41:36.954Z,18.43
2017-12-25T09:44:04.573Z,19.50
2017-12-25T09:46:32.200Z,20.63
2017-12-25T09:48:59.840Z,15.83
2017-12-25T09:51:27.441Z,16.43
2017-12-25T09:53:54.996Z,16.13
2017-12-25T09:56:23.339Z,15.87
2017-12-25T09:58:51.150Z,15.93
2017-12-25T10:01:18.767Z,16.10
2017-12-25T10:03:46.405Z,15.87
2017-12-25T10:06:13.974Z,17.23
2017-12-25T10:08:41.820Z,17.73
2017-12-25T10:11:09.414Z,15.17
2017-12-25T10:13:37.088Z,15.87
2017-12-25T10:16:04.695Z,18.73
2017-12-25T10:18:32.259Z,15.27
2017-12-25T10:20:59.866Z,13.43
2017-12-25T10:23:27.434Z,12.77
2017-12-25T10:25:54.999Z,15.87
2017-12-25T10:28:22.611Z,12.27
2017-12-25T10:30:50.218Z,11.83
2017-12-25T10:33:17.782Z,11.20
2017-12-25T10:35:45.387Z,10.93
2017-12-25T10:38:12.952Z,9.97
2017-12-25T10:43:14.435Z,10.67
2017-12-25T10:45:42.087Z,11.03
2017-12-25T10:48:09.645Z,10.50
2017-12-25T10:50:38.361Z,10.73
2017-12-25T10:53:09.642Z,9.50
2017-12-25T10:55:43.831Z,9.60
2017-12-25T10:58:11.586Z,9.90
2017-12-25T11:00:44.747Z,7.87
2017-12-25T11:03:12.338Z,9.17
2017-12-25T11:05:39.930Z,8.13
2017-12-25T11:08:07.524Z,8.40
2017-12-25T11:10:35.138Z,7.80
2017-12-25T11:13:02.803Z,9.37
2017-12-25T11:15:30.468Z,9.10
2017-12-25T11:17:58.063Z,7.43
2017-12-25T11:20:25.632Z,7.80
2017-12-25T11:22:53.191Z,8.13
2017-12-25T11:25:20.788Z,8.07
2017-12-25T11:27:48.356Z,8.57
2017-12-25T11:30:15.971Z,8.67
2017-12-25T11:32:43.584Z,8.87
2017-12-25T11:35:11.205Z,10.87
2017-12-25T11:37:38.805Z,9.87
2017-12-25T11:40:06.491Z,9.43
2017-12-25T11:42:34.890Z,11.10
2017-12-25T11:45:03.219Z,10.20
2017-12-25T11:47:30.851Z,10.93
2017-12-25T11:49:58.543Z,12.03
2017-12-25T11:52:26.108Z,11.33
2017-12-25T11:54:53.669Z,11.07
2017-12-25T11:57:21.523Z,11.20
2017-12-25T11:59:49.109Z,10.63
2017-12-25T12:02:16.854Z,11.90
2017-12-25T12:04:44.458Z,11.83
2017-12-25T12:07:12.944Z,11.10
2017-12-25T12:09:40.541Z,10.33
2017-12-25T12:12:08.158Z,11.77
2017-12-25T12:14:35.753Z,7.90
2017-12-25T12:17:03.392Z,7.27
2017-12-25T12:19:31.004Z,7.07
2017-12-25T12:21:58.618Z,7.13
2017-12-25T12:24:26.221Z,6.60
2017-12-25T12:26:53.858Z,7.03
2017-12-25T12:29:21.587Z,5.80
2017-12-25T12:31:49.167Z,6.30
2017-12-25T12:34:17.522Z,6.20
2017-12-25T12:36:45.089Z,6.03
2017-12-25T12:39:13.681Z,4.87
2017-12-25T12:41:41.305Z,5.00
2017-12-25T12:44:08.897Z,4.70
2017-12-25T12:46:36.491Z,4.63
2017-12-25T12:49:04.041Z,4.63
2017-12-25T12:51:31.760Z,4.23
2017-12-25T12:53:59.324Z,3.97
2017-12-25T12:56:26.879Z,4.27
2017-12-25T12:58:54.514Z,3.67
2017-12-25T13:01:22.110Z,3.30
2017-12-25T13:03:50.455Z,3.00
2017-12-25T13:06:18.056Z,3.07
2017-12-25T13:08:45.645Z,2.87
2017-12-25T13:11:13.953Z,2.30
2017-12-25T13:13:41.541Z,1.70
2017-12-25T13:16:09.122Z,1.90
2017-12-25T13:18:36.714Z,1.30
2017-12-25T13:21:04.422Z,3.33
2017-12-25T13:23:32.082Z,1.93
2017-12-25T13:25:59.641Z,1.63
2017-12-25T13:28:27.240Z,0.90
2017-12-25T13:30:55.600Z,1.33
2017-12-25T13:33:23.217Z,1.70
2017-12-25T13:35:50.811Z,1.63
2017-12-25T13:38:18.398Z,1.40
2017-12-25T13:40:45.963Z,1.43
2017-12-25T13:43:13.566Z,1.60
2017-12-25T13:45:41.128Z,1.20
2017-12-25T13:48:08.711Z,2.40
2017-12-25T13:50:36.342Z,1.77
2017-12-25T13:53:03.939Z,2.53
2017-12-25T13:55:31.645Z,2.70
2017-12-25T13:57:59.409Z,2.73
2017-12-25T14:00:27.744Z,4.47
2017-12-25T14:02:55.330Z,4.73
2017-12-25T14:05:23.041Z,5.20
2017-12-25T14:07:50.611Z,5.40
2017-12-25T14:10:18.619Z,7.17
2017-12-25T14:12:46.180Z,6.17
2017-12-25T14:15:15.492Z,13.07
2017-12-25T14:17:43.121Z,8.33
2017-12-25T14:20:10.703Z,7.47
2017-12-25T14:22:38.327Z,11.63
2017-12-25T14:25:05.910Z,9.27
2017-12-25T14:27:33.519Z,9.00
2017-12-25T14:30:01.122Z,8.27
2017-12-25T14:32:28.718Z,8.37
2017-12-25T14:34:56.280Z,7.70
2017-12-25T14:37:26.945Z,8.47
2017-12-25T14:39:54.613Z,8.73
2017-12-25T14:42:22.169Z,8.10
2017-12-25T14:44:49.743Z,8.90
2017-12-25T14:47:17.797Z,8.03
2017-12-25T14:49:45.519Z,8.17
2017-12-25T14:52:14.274Z,9.73
2017-12-25T14:54:44.238Z,11.23
2017-12-25T14:57:13.311Z,9.40
2017-12-25T14:59:51.338Z,9.33
2017-12-25T15:02:18.975Z,9.37
2017-12-25T15:04:46.663Z,11.30
2017-12-25T15:07:15.039Z,8.40
2017-12-25T15:09:42.601Z,8.17
2017-12-25T15:12:10.250Z,10.13
2017-12-25T15:14:37.956Z,8.60
2017-12-25T15:17:05.571Z,6.77
2017-12-25T15:19:33.175Z,6.43
2017-12-25T15:22:00.759Z,5.53
2017-12-25T15:24:28.410Z,6.57
2017-12-25T15:26:56.033Z,6.07
2017-12-25T15:29:23.627Z,5.37
2017-12-25T15:31:51.247Z,6.33
2017-12-25T15:34:18.860Z,4.83
2017-12-25T15:36:46.448Z,4.60
2017-12-25T15:39:14.080Z,4.53
2017-12-25T15:41:41.666Z,4.13
2017-12-25T15:44:09.417Z,4.90
2017-12-25T15:46:37.007Z,3.70
2017-12-25T15:49:04.624Z,3.50
2017-12-25T15:51:32.219Z,3.87
2017-12-25T15:53:59.842Z,3.33
2017-12-25T15:56:27.418Z,3.33
2017-12-25T15:58:55.105Z,3.47
2017-12-25T16:01:22.691Z,3.30
2017-12-25T16:03:50.331Z,2.70
2017-12-25T16:06:17.958Z,2.20
2017-12-25T16:08:45.577Z,2.27
2017-12-25T16:11:13.194Z,2.67
2017-12-25T16:13:40.841Z,2.10
2017-12-25T16:16:08.482Z,2.70
2017-12-25T16:18:36.866Z,3.00
2017-12-25T16:21:05.297Z,1.90
2017-12-25T16:23:32.927Z,2.60
2017-12-25T16:26:00.507Z,2.73
2017-12-25T16:28:28.098Z,3.37
2017-12-25T16:30:55.758Z,2.17
2017-12-25T16:33:23.378Z,3.10
2017-12-25T16:35:51.359Z,2.60
2017-12-25T16:38:18.976Z,3.17
2017-12-25T16:40:47.317Z,3.23
2017-12-25T16:43:14.929Z,2.60
2017-12-25T16:45:42.532Z,2.17
2017-12-25T16:48:10.172Z,2.63
2017-12-25T16:50:37.793Z,3.30
2017-12-25T16:53:05.442Z,3.00
2017-12-25T16:55:33.035Z,23.93
2017-12-25T16:58:01.455Z,32.93
2017-12-25T17:00:29.034Z,3.40
2017-12-25T17:02:56.658Z,3.23
2017-12-25T17:05:24.241Z,3.10
2017-12-25T17:07:51.864Z,2.53
2017-12-25T17:10:20.197Z,2.37
2017-12-25T17:12:47.819Z,5.37
2017-12-25T17:15:15.461Z,2.53
2017-12-25T17:17:43.098Z,2.60
2017-12-25T17:20:10.725Z,2.60
2017-12-25T17:22:38.410Z,2.67
2017-12-25T17:25:05.981Z,2.00
2017-12-25T17:27:33.608Z,2.73
2017-12-25T17:30:01.180Z,2.73
2017-12-25T17:32:28.894Z,3.70
2017-12-25T17:34:57.244Z,4.10
2017-12-25T17:37:24.822Z,4.23
2017-12-25T17:39:52.434Z,4.47
2017-12-25T17:42:20.012Z,4.43
2017-12-25T17:44:47.710Z,4.27
2017-12-25T17:47:16.049Z,4.90
2017-12-25T17:49:43.659Z,4.93
2017-12-25T17:52:11.241Z,5.57
2017-12-25T17:54:38.855Z,5.63
2017-12-25T17:57:06.434Z,4.50
2017-12-25T17:59:34.124Z,4.80
2017-12-25T18:02:01.701Z,4.67
2017-12-25T18:04:29.284Z,4.00
2017-12-25T18:06:56.896Z,4.73
2017-12-25T18:09:24.506Z,4.50
2017-12-25T18:11:52.134Z,4.03
2017-12-25T18:14:19.811Z,4.17
2017-12-25T18:16:47.447Z,4.03
2017-12-25T18:19:15.077Z,4.50
2017-12-25T18:21:42.645Z,4.57
2017-12-25T18:24:11.004Z,5.03
2017-12-25T18:26:38.707Z,4.83
2017-12-25T18:29:06.283Z,4.00
2017-12-25T18:31:34.063Z,3.70
2017-12-25T18:34:01.647Z,4.33
2017-12-25T18:36:29.977Z,4.37
2017-12-25T18:38:57.592Z,4.07
2017-12-25T18:41:25.208Z,4.40
2017-12-25T18:43:52.808Z,3.53
2017-12-25T18:46:20.572Z,2.97
2017-12-25T18:48:48.193Z,3.23
2017-12-25T18:51:15.836Z,3.70
2017-12-25T18:53:44.184Z,3.07
2017-12-25T18:56:11.820Z,3.30
2017-12-25T18:58:39.459Z,3.50
2017-12-25T19:01:07.041Z,3.43
2017-12-25T19:03:34.629Z,3.03
2017-12-25T19:06:02.242Z,3.70
2017-12-25T19:08:29.846Z,3.50
2017-12-25T19:10:57.472Z,3.57
2017-12-25T19:13:25.052Z,3.13
2017-12-25T19:15:52.628Z,3.40
2017-12-25T19:18:20.257Z,3.80
2017-12-25T19:20:47.837Z,3.47
2017-12-25T19:23:15.452Z,4.53
2017-12-25T19:25:44.005Z,3.93
2017-12-25T19:28:11.634Z,4.50
2017-12-25T19:30:39.235Z,3.90
2017-12-25T19:33:06.846Z,3.67
2017-12-25T19:35:34.448Z,3.80
2017-12-25T19:38:02.022Z,4.47
2017-12-25T19:40:29.647Z,4.07
2017-12-25T19:42:57.262Z,4.67
2017-12-25T19:45:24.868Z,4.33
2017-12-25T19:47:52.441Z,4.17
2017-12-25T19:50:20.056Z,3.97
2017-12-25T19:52:47.667Z,4.53
2017-12-25T19:55:15.237Z,4.07
2017-12-25T19:57:42.861Z,4.83
2017-12-25T20:00:10.486Z,4.30
2017-12-25T20:02:38.893Z,4.73
2017-12-25T20:05:06.521Z,4.60
2017-12-25T20:07:34.104Z,4.60
2017-12-25T20:10:02.506Z,5.17
2017-12-25T20:12:30.079Z,4.30
2017-12-25T20:14:57.666Z,4.80
2017-12-25T20:17:25.280Z,4.30
2017-12-25T20:19:52.851Z,4.27
2017-12-25T20:22:20.500Z,4.67
2017-12-25T20:24:48.076Z,5.63
2017-12-25T20:27:15.659Z,6.67
2017-12-25T20:29:43.283Z,5.13
2017-12-25T20:32:10.865Z,6.20
2017-12-25T20:34:38.474Z,5.70
2017-12-25T20:37:06.090Z,5.43
2017-12-25T20:39:33.814Z,4.93
2017-12-25T20:42:02.159Z,4.67
2017-12-25T20:44:29.740Z,6.10
2017-12-25T20:46:57.362Z,5.23
2017-12-25T20:49:24.965Z,4.67
2017-12-25T20:51:53.403Z,4.80
2017-12-25T20:54:20.986Z,5.20
2017-12-25T20:56:48.609Z,5.33
2017-12-25T20:59:16.193Z,4.73
2017-12-25T21:01:43.807Z,4.80
2017-12-25T21:04:12.154Z,4.83
2017-12-25T21:06:39.802Z,5.50
2017-12-25T21:09:07.384Z,5.03
2017-12-25T21:11:34.962Z,5.40
2017-12-25T21:14:02.584Z,4.40
2017-12-25T21:16:30.156Z,4.67
2017-12-25T21:18:57.808Z,5.37
2017-12-25T21:21:25.376Z,4.13
2017-12-25T21:23:53.728Z,4.03
2017-12-25T21:26:21.354Z,4.00
2017-12-25T21:28:49.701Z,4.30
2017-12-25T21:31:17.334Z,3.70
2017-12-25T21:33:44.909Z,3.17
2017-12-25T21:36:12.481Z,3.37
2017-12-25T21:38:40.093Z,3.47
2017-12-25T21:41:07.722Z,3.27
2017-12-25T21:43:35.296Z,4.07
2017-12-25T21:46:02.925Z,3.73
2017-12-25T21:48:30.516Z,3.30
2017-12-25T21:50:58.152Z,3.10
2017-12-25T21:53:25.965Z,3.50
2017-12-25T21:55:53.544Z,3.03
2017-12-25T21:58:21.184Z,3.37
2017-12-25T22:00:48.812Z,3.03
2017-12-25T22:03:17.182Z,3.50
2017-12-25T22:05:44.801Z,3.30
2017-12-25T22:08:12.452Z,2.80
2017-12-25T22:10:40.020Z,3.30
2017-12-25T22:13:07.681Z,3.50
2017-12-25T22:15:35.270Z,3.30
2017-12-25T22:18:03.615Z,2.90
2017-12-25T22:20:31.241Z,2.90
2017-12-25T22:22:58.808Z,3.00
2017-12-25T22:25:26.426Z,3.03
2017-12-25T22:27:54.007Z,2.80
2017-12-25T22:30:21.630Z,3.10
2017-12-25T22:32:49.220Z,3.10
2017-12-25T22:35:16.846Z,3.07
2017-12-25T22:37:44.478Z,3.47
2017-12-25T22:40:12.115Z,3.20
2017-12-25T22:42:39.705Z,3.73
2017-12-25T22:45:07.338Z,4.00
2017-12-25T22:47:34.922Z,4.97
2017-12-25T22:50:02.548Z,4.63
2017-12-25T22:52:30.160Z,4.50
2017-12-25T22:54:58.499Z,4.80
2017-12-25T22:57:26.076Z,4.77
2017-12-25T22:59:53.699Z,5.10
2017-12-25T23:02:21.330Z,6.67
2017-12-25T23:04:48.909Z,6.67
2017-12-25T23:07:16.621Z,6.17
2017-12-25T23:09:44.240Z,6.90
2017-12-25T23:12:11.813Z,7.90
2017-12-25T23:14:39.424Z,7.60
2017-12-25T23:17:07.021Z,8.03
2017-12-25T23:19:34.650Z,8.17
2017-12-25T23:22:02.296Z,8.20
2017-12-25T23:24:29.881Z,6.83
2017-12-25T23:26:57.444Z,8.80
2017-12-25T23:29:25.052Z,6.90
2017-12-25T23:31:52.650Z,8.87
2017-12-25T23:34:21.029Z,10.23
2017-12-25T23:36:48.648Z,7.33
2017-12-25T23:39:16.281Z,7.73
2017-12-25T23:41:43.855Z,9.30
2017-12-25T23:47:02.316Z,7.17
2017-12-25T23:49:29.890Z,7.13
2017-12-25T23:51:57.452Z,6.97
2017-12-25T23:54:25.056Z,7.83
2017-12-25T23:56:52.720Z,7.80
2017-12-25T23:59:20.377Z,7.13
